Time;durP1;ratioP1;P1;durP2;ratioP2;P2;SDS_P1;SDS_P2;PMS_P1;PMS_P2;Temp;Humidity;BMP_temperature;BMP_pressure;BME280_temperature;BME280_humidity;BME280_pressure;Samples;Min_cycle;Max_cycle;Signal;HPM_P1;HPM_P2
2023/08/31 00:00:44;;;;;;;13.47;6.17;;;13.10;99.90;;;;;;5013089;28;20971;-71
2023/08/31 00:03:10;;;;;;;8.53;5.70;;;13.00;99.90;;;;;;5006210;28;20459;-72
2023/08/31 00:05:40;;;;;;;8.50;5.13;;;13.00;99.90;;;;;;5012935;28;20493;-71
2023/08/31 00:08:07;;;;;;;6.10;5.50;;;13.00;99.90;;;;;;5011245;28;20461;-72
2023/08/31 00:10:34;;;;;;;11.27;5.90;;;13.00;99.90;;;;;;5010433;28;20478;-72
2023/08/31 00:13:03;;;;;;;8.97;5.70;;;13.00;99.90;;;;;;5012897;28;20446;-71
2023/08/31 00:15:32;;;;;;;9.13;5.80;;;13.00;99.90;;;;;;5012688;28;20489;-70
2023/08/31 00:17:59;;;;;;;17.30;6.10;;;13.00;99.90;;;;;;5013419;28;20462;-71
2023/08/31 00:20:26;;;;;;;11.90;6.03;;;12.90;99.90;;;;;;5012675;28;21055;-71
2023/08/31 00:22:53;;;;;;;10.63;6.13;;;12.90;99.90;;;;;;5011767;28;20463;-71
2023/08/31 00:25:19;;;;;;;12.17;6.67;;;12.90;99.90;;;;;;5013014;28;20485;-71
2023/08/31 00:27:48;;;;;;;7.77;5.57;;;12.90;99.90;;;;;;5013205;28;20477;-71
2023/08/31 00:30:16;;;;;;;11.70;5.40;;;12.90;99.90;;;;;;5012580;28;21006;-71
2023/08/31 00:32:43;;;;;;;9.37;5.70;;;12.90;99.90;;;;;;5012359;28;20446;-72
2023/08/31 00:35:09;;;;;;;9.30;6.37;;;12.90;99.90;;;;;;5013221;28;20473;-70
2023/08/31 00:37:36;;;;;;;14.10;6.30;;;12.90;99.90;;;;;;5012699;28;20454;-70
2023/08/31 00:40:04;;;;;;;11.87;6.20;;;12.80;99.90;;;;;;5011934;28;20451;-70
2023/08/31 00:42:31;;;;;;;8.40;5.43;;;12.80;99.90;;;;;;5011826;28;20849;-71
2023/08/31 00:44:57;;;;;;;13.20;5.70;;;12.80;99.90;;;;;;5011411;28;20501;-71
2023/08/31 00:47:26;;;;;;;14.10;6.20;;;12.80;99.90;;;;;;5012993;28;20461;-71
2023/08/31 00:49:53;;;;;;;8.53;5.93;;;12.80;99.90;;;;;;5013129;28;20447;-71
2023/08/31 00:52:20;;;;;;;12.63;5.63;;;12.80;99.90;;;;;;5012640;28;20470;-70
2023/08/31 00:54:47;;;;;;;9.80;6.13;;;12.80;99.90;;;;;;5012913;28;20508;-70
2023/08/31 00:57:14;;;;;;;8.87;5.80;;;12.80;99.90;;;;;;5012475;28;21003;-70
2023/08/31 00:59:41;;;;;;;10.17;6.33;;;12.80;99.90;;;;;;5007473;28;20462;-71
2023/08/31 01:02:16;;;;;;;15.70;5.93;;;12.80;99.90;;;;;;5012514;28;20477;-70
2023/08/31 01:04:53;;;;;;;9.30;5.70;;;12.80;99.90;;;;;;5012989;28;20493;-71
2023/08/31 01:07:30;;;;;;;10.10;6.20;;;12.80;99.90;;;;;;5007766;28;21025;-71
2023/08/31 01:10:04;;;;;;;10.10;5.00;;;12.80;99.90;;;;;;5006787;28;20454;-70
2023/08/31 01:12:37;;;;;;;9.00;5.73;;;12.80;99.90;;;;;;5007984;28;20506;-70
2023/08/31 01:15:07;;;;;;;7.17;5.40;;;12.80;99.90;;;;;;5012567;28;20544;-70
2023/08/31 01:17:38;;;;;;;12.90;5.80;;;12.80;99.90;;;;;;5012634;28;20924;-70
2023/08/31 01:20:11;;;;;;;9.70;5.90;;;12.80;99.90;;;;;;5012279;28;20449;-70
2023/08/31 01:22:41;;;;;;;10.17;6.17;;;12.80;99.90;;;;;;5012023;28;20492;-71
2023/08/31 01:25:09;;;;;;;13.20;6.40;;;12.80;99.90;;;;;;5012694;28;20490;-70
2023/08/31 01:27:38;;;;;;;9.17;5.30;;;12.80;99.90;;;;;;5009152;28;20447;-70
2023/08/31 01:30:06;;;;;;;9.20;5.87;;;12.80;99.90;;;;;;5012362;28;20446;-71
2023/08/31 01:32:32;;;;;;;12.30;6.77;;;12.80;99.90;;;;;;5011779;28;20966;-70
2023/08/31 01:35:01;;;;;;;10.23;5.53;;;12.70;99.90;;;;;;5012177;28;20494;-70
2023/08/31 01:37:31;;;;;;;10.73;5.90;;;12.70;99.90;;;;;;5012330;28;20455;-70
2023/08/31 01:40:05;;;;;;;6.87;5.20;;;12.70;99.90;;;;;;5005081;28;20454;-70
2023/08/31 01:42:34;;;;;;;8.80;5.60;;;12.70;99.90;;;;;;5011868;28;20442;-70
2023/08/31 01:45:02;;;;;;;14.37;6.00;;;12.70;99.90;;;;;;5011802;28;20905;-70
2023/08/31 01:47:29;;;;;;;9.70;6.27;;;12.70;99.90;;;;;;5011605;28;20490;-70
2023/08/31 01:49:56;;;;;;;15.00;6.33;;;12.70;99.90;;;;;;5012085;28;20874;-70
2023/08/31 01:52:23;;;;;;;10.40;6.00;;;12.70;99.90;;;;;;5011921;28;20477;-70
2023/08/31 01:54:49;;;;;;;9.20;6.10;;;12.70;99.90;;;;;;5007721;28;20454;-70
2023/08/31 01:57:16;;;;;;;9.53;6.30;;;12.60;99.90;;;;;;5011773;28;20856;-70
2023/08/31 01:59:44;;;;;;;9.30;6.43;;;12.60;99.90;;;;;;5011185;28;20968;-69
2023/08/31 02:02:11;;;;;;;8.47;6.07;;;12.50;99.90;;;;;;5011447;28;20793;-70
2023/08/31 02:04:38;;;;;;;11.80;6.53;;;12.50;99.90;;;;;;5011591;28;20513;-70
2023/08/31 02:07:04;;;;;;;13.23;6.53;;;12.50;99.90;;;;;;5011777;28;20520;-70
2023/08/31 02:09:31;;;;;;;9.83;6.00;;;12.50;99.90;;;;;;5009339;28;20458;-70
2023/08/31 02:11:58;;;;;;;12.20;6.00;;;12.50;99.90;;;;;;5010709;28;20466;-71
2023/08/31 02:14:25;;;;;;;10.00;6.00;;;12.50;99.90;;;;;;5011012;28;20465;-70
2023/08/31 02:16:53;;;;;;;10.43;6.03;;;12.50;99.90;;;;;;5011721;28;20505;-70
2023/08/31 02:19:19;;;;;;;11.33;5.97;;;12.50;99.90;;;;;;5011553;28;20932;-70
2023/08/31 02:21:46;;;;;;;9.30;5.67;;;12.50;99.90;;;;;;5011465;28;20491;-70
2023/08/31 02:24:13;;;;;;;8.93;5.53;;;12.60;99.90;;;;;;5009548;28;20455;-70
2023/08/31 02:26:39;;;;;;;7.83;5.90;;;12.60;99.90;;;;;;5011178;28;21062;-70
2023/08/31 02:29:06;;;;;;;14.80;5.37;;;12.60;99.90;;;;;;5011088;28;20450;-70
2023/08/31 02:31:33;;;;;;;5.23;4.80;;;12.60;99.90;;;;;;5011069;28;20470;-70
2023/08/31 02:34:01;;;;;;;6.73;4.90;;;12.60;99.90;;;;;;5011527;28;20446;-70
2023/08/31 02:36:27;;;;;;;11.40;6.13;;;12.50;99.90;;;;;;5010483;28;20447;-70
2023/08/31 02:38:54;;;;;;;7.03;5.73;;;12.50;99.90;;;;;;5004246;28;20500;-70
2023/08/31 02:41:21;;;;;;;8.20;5.83;;;12.50;99.90;;;;;;5010743;28;20890;-70
2023/08/31 02:43:47;;;;;;;10.23;6.13;;;12.40;99.90;;;;;;5008604;28;20454;-70
2023/08/31 02:46:14;;;;;;;18.27;6.47;;;12.40;99.90;;;;;;5011482;28;20518;-69
2023/08/31 02:48:40;;;;;;;11.03;6.37;;;12.40;99.90;;;;;;5010813;28;20466;-70
2023/08/31 02:51:08;;;;;;;7.67;5.90;;;12.40;99.90;;;;;;5010959;28;20489;-70
2023/08/31 02:53:35;;;;;;;11.03;6.10;;;12.40;99.90;;;;;;5010691;28;20524;-70
2023/08/31 02:56:02;;;;;;;9.03;6.53;;;12.40;99.90;;;;;;5010948;28;20492;-70
2023/08/31 02:58:29;;;;;;;10.47;5.80;;;12.40;99.90;;;;;;5010853;28;20466;-70
2023/08/31 03:00:55;;;;;;;12.50;7.03;;;12.40;99.90;;;;;;5003897;28;20466;-70
2023/08/31 03:03:22;;;;;;;8.93;5.90;;;12.50;99.90;;;;;;5010414;28;20454;-70
2023/08/31 03:05:49;;;;;;;10.50;5.97;;;12.40;99.90;;;;;;5010228;28;20498;-70
2023/08/31 03:08:17;;;;;;;6.57;5.70;;;12.30;99.90;;;;;;5010830;28;20508;-70
2023/08/31 03:10:43;;;;;;;10.20;5.73;;;12.30;99.90;;;;;;5010492;28;20814;-70
2023/08/31 03:13:10;;;;;;;14.00;6.40;;;12.20;99.90;;;;;;5004183;28;20471;-70
2023/08/31 03:15:37;;;;;;;8.70;5.70;;;12.20;99.90;;;;;;5010459;28;20454;-70
2023/08/31 03:18:04;;;;;;;9.73;6.17;;;12.20;99.90;;;;;;5010790;28;20994;-70
2023/08/31 03:20:30;;;;;;;9.40;6.30;;;12.10;99.90;;;;;;5010449;28;20536;-70
2023/08/31 03:22:57;;;;;;;10.40;5.97;;;12.10;99.90;;;;;;5010569;28;20508;-70
2023/08/31 03:25:25;;;;;;;11.30;6.60;;;12.10;99.90;;;;;;5014689;28;20489;-70
2023/08/31 03:27:52;;;;;;;9.93;6.60;;;12.10;99.90;;;;;;5009455;28;20460;-70
2023/08/31 03:30:19;;;;;;;11.43;7.17;;;12.10;99.90;;;;;;5014678;28;20497;-69
2023/08/31 03:32:45;;;;;;;10.53;7.17;;;12.10;99.90;;;;;;5014318;28;20450;-70
2023/08/31 03:35:12;;;;;;;9.43;6.90;;;12.00;99.90;;;;;;5014628;28;20504;-70
2023/08/31 03:37:39;;;;;;;12.90;6.80;;;12.10;99.90;;;;;;5014468;28;20539;-70
2023/08/31 03:40:07;;;;;;;12.90;7.27;;;12.00;99.90;;;;;;5012558;28;20549;-71
2023/08/31 03:42:35;;;;;;;11.30;6.63;;;12.00;99.90;;;;;;5012185;28;20457;-71
2023/08/31 03:45:03;;;;;;;9.70;6.60;;;12.00;99.90;;;;;;5014314;28;20450;-71
2023/08/31 03:47:29;;;;;;;9.07;7.03;;;12.00;99.90;;;;;;5014178;28;20454;-71
2023/08/31 03:49:56;;;;;;;7.93;6.37;;;12.00;99.90;;;;;;5014210;28;20442;-71
2023/08/31 03:52:23;;;;;;;11.50;6.80;;;12.00;99.90;;;;;;5013771;28;21057;-71
2023/08/31 03:54:52;;;;;;;12.07;7.70;;;12.00;99.90;;;;;;5011250;28;20454;-71
2023/08/31 03:57:18;;;;;;;14.67;6.77;;;12.00;99.90;;;;;;5014263;28;20442;-71
2023/08/31 03:59:46;;;;;;;13.33;7.20;;;12.00;99.90;;;;;;5007020;28;20512;-71
2023/08/31 04:02:13;;;;;;;12.23;6.50;;;12.00;99.90;;;;;;5013711;28;21038;-71
2023/08/31 04:04:40;;;;;;;11.80;6.37;;;12.00;99.90;;;;;;5013647;28;20450;-71
2023/08/31 04:07:07;;;;;;;9.13;6.10;;;12.00;99.90;;;;;;5014156;28;20524;-71
2023/08/31 04:09:33;;;;;;;12.53;7.30;;;12.00;99.90;;;;;;5011859;28;20458;-71
2023/08/31 04:12:00;;;;;;;6.90;5.60;;;12.00;99.90;;;;;;5013580;28;20489;-71
2023/08/31 04:14:27;;;;;;;13.10;6.20;;;12.00;99.90;;;;;;5013649;28;20489;-70
2023/08/31 04:16:55;;;;;;;10.13;6.30;;;12.00;99.90;;;;;;5013271;28;20450;-70
2023/08/31 04:19:22;;;;;;;7.63;6.10;;;12.00;99.90;;;;;;5013779;28;20504;-70
2023/08/31 04:21:48;;;;;;;7.87;6.07;;;12.00;99.90;;;;;;5013428;28;20505;-71
2023/08/31 04:24:15;;;;;;;7.30;6.10;;;12.00;99.90;;;;;;5013117;28;20524;-71
2023/08/31 04:26:42;;;;;;;12.13;7.20;;;11.90;99.90;;;;;;5013274;28;20486;-70
2023/08/31 04:29:08;;;;;;;8.53;6.07;;;11.90;99.90;;;;;;5013535;28;20450;-71
2023/08/31 04:31:35;;;;;;;8.73;6.30;;;11.80;99.90;;;;;;5012123;28;20478;-71
2023/08/31 04:34:03;;;;;;;15.33;6.40;;;11.70;99.90;;;;;;5013193;28;20450;-71
2023/08/31 04:36:30;;;;;;;9.30;6.60;;;11.70;99.90;;;;;;5012735;28;20429;-71
2023/08/31 04:38:56;;;;;;;10.13;6.67;;;11.60;99.90;;;;;;5013191;28;20450;-70
2023/08/31 04:41:23;;;;;;;12.80;7.00;;;11.60;99.90;;;;;;5012732;28;20975;-71
2023/08/31 04:43:49;;;;;;;14.77;6.53;;;11.60;99.90;;;;;;5011544;28;20458;-71
2023/08/31 04:46:17;;;;;;;7.87;6.40;;;11.50;99.90;;;;;;5013250;28;20489;-71
2023/08/31 04:48:43;;;;;;;8.90;6.50;;;11.50;99.90;;;;;;5013026;28;20452;-70
2023/08/31 04:51:28;;;;;;;10.90;7.63;;;11.40;99.90;;;;;;5013070;28;20832;-71
2023/08/31 04:53:55;;;;;;;10.33;7.30;;;11.40;99.90;;;;;;5013030;28;20449;-71
2023/08/31 04:56:22;;;;;;;10.67;6.13;;;11.40;99.90;;;;;;5011629;28;20450;-71
2023/08/31 04:58:48;;;;;;;11.50;7.07;;;11.30;99.90;;;;;;5012654;28;20454;-70
2023/08/31 05:01:15;;;;;;;11.27;6.93;;;11.30;99.90;;;;;;5013220;28;20539;-70
2023/08/31 05:03:42;;;;;;;12.67;7.20;;;11.30;99.90;;;;;;5012712;28;20513;-71
2023/08/31 05:06:09;;;;;;;16.43;6.93;;;11.30;99.90;;;;;;5012508;28;20544;-71
2023/08/31 05:08:37;;;;;;;8.97;7.37;;;11.30;99.90;;;;;;5012611;28;20516;-71
2023/08/31 05:11:03;;;;;;;9.57;7.77;;;11.20;99.90;;;;;;5012585;28;20985;-71
2023/08/31 05:13:30;;;;;;;18.03;8.23;;;11.20;99.90;;;;;;5006096;28;20451;-71
2023/08/31 05:15:57;;;;;;;9.27;6.70;;;11.30;99.90;;;;;;5012806;28;20443;-70
2023/08/31 05:18:23;;;;;;;8.50;7.17;;;11.30;99.90;;;;;;5012361;28;20859;-71
2023/08/31 05:20:50;;;;;;;13.00;8.13;;;11.30;99.90;;;;;;5012290;28;20482;-71
2023/08/31 05:23:17;;;;;;;10.73;7.23;;;11.40;99.90;;;;;;5012131;28;20506;-70
2023/08/31 05:25:45;;;;;;;14.30;7.20;;;11.50;99.90;;;;;;5012374;28;21034;-70
2023/08/31 05:28:12;;;;;;;9.87;7.27;;;11.60;99.90;;;;;;5010925;28;20458;-70
2023/08/31 05:30:49;;;;;;;12.77;7.03;;;11.80;99.90;;;;;;5012044;28;20474;-71
2023/08/31 05:36:37;;;;;;;11.63;5.80;;;12.30;99.90;;;;;;5009820;28;20417;-70
2023/08/31 05:39:04;;;;;;;9.77;6.07;;;12.60;99.90;;;;;;5012518;28;20446;-70
2023/08/31 05:41:32;;;;;;;8.10;5.23;;;12.80;99.90;;;;;;5006755;28;20503;-70
2023/08/31 05:43:59;;;;;;;5.83;5.07;;;13.00;99.90;;;;;;5009006;28;21021;-71
2023/08/31 05:46:25;;;;;;;8.07;5.90;;;13.30;99.90;;;;;;5004268;28;20490;-71
2023/08/31 05:48:52;;;;;;;6.90;4.80;;;13.50;99.90;;;;;;5010443;28;20469;-71
2023/08/31 05:51:19;;;;;;;14.73;5.57;;;13.80;99.90;;;;;;5009193;28;20561;-71
2023/08/31 05:53:45;;;;;;;7.53;4.80;;;14.00;99.90;;;;;;5011662;28;20824;-71
2023/08/31 05:56:12;;;;;;;8.87;5.30;;;14.10;99.90;;;;;;5011401;28;20850;-71
2023/08/31 05:58:40;;;;;;;7.77;4.47;;;14.20;99.90;;;;;;5011319;28;20458;-69
2023/08/31 06:01:07;;;;;;;5.70;4.33;;;14.30;99.90;;;;;;5011898;28;20470;-69
2023/08/31 06:03:33;;;;;;;6.50;3.87;;;14.50;99.90;;;;;;5011857;28;20494;-69
2023/08/31 06:06:01;;;;;;;5.63;4.30;;;14.80;99.90;;;;;;5011789;28;20564;-69
2023/08/31 06:08:29;;;;;;;6.37;4.63;;;14.70;99.90;;;;;;5011325;28;20451;-69
2023/08/31 06:10:56;;;;;;;4.37;3.97;;;14.90;99.90;;;;;;5010590;28;20488;-69
2023/08/31 06:13:22;;;;;;;5.03;4.00;;;14.80;99.90;;;;;;5004055;28;20995;-69
2023/08/31 06:15:50;;;;;;;6.50;4.40;;;14.50;99.90;;;;;;5007133;28;20454;-69
2023/08/31 06:18:17;;;;;;;8.33;4.67;;;14.40;99.90;;;;;;5011712;28;20493;-68
2023/08/31 06:20:43;;;;;;;5.83;4.43;;;14.60;99.90;;;;;;5011017;28;20524;-68
2023/08/31 06:23:11;;;;;;;6.20;3.77;;;14.80;99.90;;;;;;5011202;28;20469;-68
2023/08/31 06:25:38;;;;;;;9.00;4.53;;;15.20;99.90;;;;;;5010682;28;20465;-69
2023/08/31 06:28:08;;;;;;;6.93;4.07;;;15.50;99.90;;;;;;5003740;28;20609;-69
2023/08/31 06:30:35;;;;;;;4.80;4.37;;;15.80;99.90;;;;;;5005575;28;20494;-69
2023/08/31 06:33:03;;;;;;;4.07;3.60;;;15.80;99.90;;;;;;5010862;28;20454;-69
2023/08/31 06:35:29;;;;;;;5.20;3.97;;;16.00;99.90;;;;;;5011325;28;20501;-68
2023/08/31 06:37:56;;;;;;;4.40;3.43;;;16.00;99.90;;;;;;5010963;28;20446;-69
2023/08/31 06:40:22;;;;;;;5.00;4.00;;;15.70;99.90;;;;;;5006317;28;20558;-69
2023/08/31 06:42:49;;;;;;;3.73;3.30;;;15.40;99.90;;;;;;5002798;28;20875;-68
2023/08/31 06:45:16;;;;;;;6.73;3.60;;;15.20;99.90;;;;;;5010225;28;20454;-68
2023/08/31 06:47:42;;;;;;;4.47;3.57;;;15.00;99.90;;;;;;5010799;28;20905;-69
2023/08/31 06:50:11;;;;;;;6.33;3.73;;;15.00;99.90;;;;;;5010907;28;20825;-69
2023/08/31 06:52:37;;;;;;;9.37;4.50;;;15.00;99.90;;;;;;5007062;28;20520;-69
2023/08/31 06:55:06;;;;;;;9.53;4.07;;;15.10;99.90;;;;;;5011154;28;20844;-67
2023/08/31 06:57:32;;;;;;;7.27;3.93;;;15.10;99.90;;;;;;5010336;28;20478;-69
2023/08/31 06:59:59;;;;;;;4.10;3.30;;;15.10;99.90;;;;;;5010757;28;20446;-68
2023/08/31 07:02:27;;;;;;;6.37;3.83;;;15.00;99.90;;;;;;5010641;28;20421;-69
2023/08/31 07:04:54;;;;;;;7.10;3.40;;;14.90;99.90;;;;;;5010637;28;20512;-69
2023/08/31 07:07:22;;;;;;;4.20;3.47;;;14.90;99.90;;;;;;5013666;28;20487;-69
2023/08/31 07:09:49;;;;;;;7.00;3.80;;;15.10;99.90;;;;;;5011573;28;20473;-69
2023/08/31 07:12:15;;;;;;;6.50;3.30;;;15.40;99.90;;;;;;5010114;28;20552;-69
2023/08/31 07:14:42;;;;;;;9.20;3.17;;;15.70;99.90;;;;;;5010612;28;20461;-70
2023/08/31 07:17:09;;;;;;;6.53;3.53;;;15.90;99.90;;;;;;5010713;28;20446;-76
2023/08/31 07:19:37;;;;;;;5.87;3.23;;;16.20;99.90;;;;;;5007789;28;20462;-77
2023/08/31 07:22:06;;;;;;;3.90;2.80;;;16.70;99.90;;;;;;5012108;28;20445;-78
2023/08/31 07:24:34;;;;;;;3.03;2.83;;;16.90;99.90;;;;;;5012743;28;20443;-77
2023/08/31 07:27:02;;;;;;;3.60;3.10;;;17.10;99.90;;;;;;5011511;28;20892;-78
2023/08/31 07:29:29;;;;;;;5.13;2.93;;;17.40;99.90;;;;;;5012645;28;20484;-77
2023/08/31 07:31:55;;;;;;;4.50;3.30;;;17.70;99.90;;;;;;5008894;28;20445;-77
2023/08/31 07:34:22;;;;;;;5.80;3.43;;;18.00;99.90;;;;;;5013068;28;20442;-77
2023/08/31 07:36:49;;;;;;;6.63;2.93;;;18.10;99.90;;;;;;5012873;28;20455;-76
2023/08/31 07:39:17;;;;;;;5.40;3.10;;;18.10;99.90;;;;;;5011554;28;20481;-78
2023/08/31 07:41:45;;;;;;;8.43;2.60;;;18.30;99.90;;;;;;5010196;28;20481;-77
2023/08/31 07:44:12;;;;;;;5.07;2.60;;;18.50;99.90;;;;;;5010736;28;20524;-77
2023/08/31 07:46:38;;;;;;;4.03;2.80;;;18.70;99.90;;;;;;5004621;28;20533;-77
2023/08/31 07:49:06;;;;;;;4.50;2.30;;;19.10;99.90;;;;;;5012261;28;20479;-77
2023/08/31 07:51:32;;;;;;;4.47;2.70;;;19.40;99.90;;;;;;5011412;28;20470;-78
2023/08/31 07:54:03;;;;;;;4.43;2.47;;;19.40;99.90;;;;;;5011244;28;20467;-77
2023/08/31 07:56:29;;;;;;;5.10;2.50;;;19.20;99.90;;;;;;5011685;28;20530;-76
2023/08/31 07:58:58;;;;;;;9.07;2.90;;;19.00;99.90;;;;;;5011667;28;20475;-77
2023/08/31 08:01:25;;;;;;;6.30;2.50;;;18.80;99.90;;;;;;5010395;28;20988;-77
2023/08/31 08:03:51;;;;;;;2.43;2.23;;;18.30;99.90;;;;;;5011349;28;20450;-77
2023/08/31 08:06:18;;;;;;;4.83;2.40;;;18.20;99.90;;;;;;5010732;28;20940;-77
2023/08/31 08:08:45;;;;;;;2.57;2.30;;;18.20;99.90;;;;;;5012441;28;20462;-77
2023/08/31 08:11:11;;;;;;;6.80;2.70;;;18.20;99.90;;;;;;5013868;28;20484;-77
2023/08/31 08:13:38;;;;;;;2.70;2.30;;;18.10;99.90;;;;;;5014102;28;20450;-77
2023/08/31 08:16:07;;;;;;;4.03;2.10;;;18.30;99.90;;;;;;5016128;28;20528;-76
2023/08/31 08:18:34;;;;;;;3.30;2.30;;;18.70;99.90;;;;;;5015003;28;20827;-77
2023/08/31 08:21:01;;;;;;;4.60;1.83;;;19.10;99.90;;;;;;5016407;28;20789;-77
2023/08/31 08:23:27;;;;;;;4.07;2.13;;;19.30;99.90;;;;;;5011262;28;20494;-76
2023/08/31 08:25:54;;;;;;;4.23;2.50;;;19.00;99.90;;;;;;5013778;28;20436;-75
2023/08/31 08:28:21;;;;;;;5.23;2.37;;;18.60;99.90;;;;;;5010054;28;21405;-77
2023/08/31 08:30:47;;;;;;;2.60;2.30;;;18.30;99.90;;;;;;5014081;28;20460;-77
2023/08/31 08:33:15;;;;;;;4.95;2.13;;;18.10;99.90;;;;;;5013566;28;20411;-69
2023/08/31 08:35:42;;;;;;;3.60;2.60;;;17.90;99.90;;;;;;5013026;28;20676;-69
2023/08/31 08:38:08;;;;;;;6.88;2.10;;;17.80;99.90;;;;;;5012106;28;20941;-71
2023/08/31 08:40:35;;;;;;;4.17;2.40;;;17.60;99.90;;;;;;5012775;28;20289;-68
2023/08/31 08:43:06;;;;;;;3.60;2.30;;;17.40;99.90;;;;;;5012681;28;20450;-69
2023/08/31 08:45:38;;;;;;;2.93;2.40;;;17.10;99.90;;;;;;5010611;28;20421;-69
2023/08/31 08:48:06;;;;;;;3.93;2.80;;;17.10;99.90;;;;;;5012888;28;20464;-69
2023/08/31 08:50:37;;;;;;;6.77;2.67;;;17.30;99.90;;;;;;5012893;28;20466;-69
2023/08/31 08:53:04;;;;;;;5.90;2.63;;;17.40;99.90;;;;;;5012885;28;20448;-68
2023/08/31 08:55:31;;;;;;;2.60;2.40;;;17.80;99.90;;;;;;5009339;28;20429;-69
2023/08/31 08:57:59;;;;;;;4.20;2.57;;;18.00;99.90;;;;;;5013220;28;20433;-69
2023/08/31 09:00:27;;;;;;;4.77;2.77;;;18.40;99.90;;;;;;5012536;28;20532;-69
2023/08/31 09:02:53;;;;;;;3.77;2.10;;;18.60;99.90;;;;;;5012669;28;20454;-69
2023/08/31 09:05:20;;;;;;;4.80;2.00;;;18.40;99.90;;;;;;5012697;28;20941;-69
2023/08/31 09:08:05;;;;;;;7.93;2.53;;;18.20;99.90;;;;;;5012505;28;20974;-70
2023/08/31 09:10:40;;;;;;;2.87;2.53;;;18.00;99.90;;;;;;5012733;28;20470;-69
2023/08/31 09:13:08;;;;;;;5.33;2.60;;;18.10;99.90;;;;;;5011423;28;20447;-69
2023/08/31 09:15:41;;;;;;;4.73;2.43;;;18.60;99.90;;;;;;5010873;28;20552;-69
2023/08/31 09:18:08;;;;;;;5.63;2.87;;;18.60;99.90;;;;;;5012609;28;20438;-68
2023/08/31 09:20:45;;;;;;;4.00;2.20;;;18.80;99.90;;;;;;5010654;28;20583;-69
2023/08/31 09:23:13;;;;;;;5.03;2.40;;;19.10;99.90;;;;;;5012210;28;20539;-69
2023/08/31 09:25:43;;;;;;;3.57;2.40;;;19.30;99.90;;;;;;5012048;28;20847;-69
2023/08/31 09:28:10;;;;;;;3.57;2.57;;;19.60;99.90;;;;;;5011961;28;20536;-69
2023/08/31 09:30:37;;;;;;;2.47;2.27;;;19.90;99.90;;;;;;5007918;28;20865;-69
2023/08/31 09:33:05;;;;;;;3.17;2.30;;;19.90;99.90;;;;;;5009709;28;20549;-69
2023/08/31 09:35:32;;;;;;;3.20;2.57;;;19.30;99.90;;;;;;5012506;28;20442;-69
2023/08/31 09:37:59;;;;;;;3.87;2.30;;;19.00;99.90;;;;;;5009240;28;20529;-69
2023/08/31 09:40:27;;;;;;;9.90;2.37;;;18.70;99.90;;;;;;5012162;28;20474;-69
2023/08/31 09:42:53;;;;;;;5.97;2.73;;;18.50;99.90;;;;;;5011895;28;20458;-69
2023/08/31 09:45:26;;;;;;;3.50;2.40;;;18.30;99.90;;;;;;5012050;28;20440;-69
2023/08/31 09:47:53;;;;;;;5.63;2.37;;;18.30;99.90;;;;;;5012310;28;20460;-69
2023/08/31 09:50:20;;;;;;;5.20;2.67;;;18.70;99.90;;;;;;5011796;28;20547;-70
2023/08/31 09:52:49;;;;;;;3.17;2.40;;;19.10;99.90;;;;;;5011091;28;20524;-69
2023/08/31 09:55:17;;;;;;;4.30;2.70;;;19.60;99.90;;;;;;5011723;28;20447;-70
2023/08/31 09:57:46;;;;;;;6.40;2.53;;;20.30;99.90;;;;;;5011594;28;20454;-67
2023/08/31 10:00:15;;;;;;;5.10;2.40;;;20.60;99.90;;;;;;5011286;28;21168;-68
2023/08/31 10:02:43;;;;;;;8.47;2.73;;;20.50;99.90;;;;;;5004919;28;20844;-67
2023/08/31 10:05:09;;;;;;;4.57;2.30;;;20.40;99.90;;;;;;5011293;28;20537;-67
2023/08/31 10:07:37;;;;;;;5.40;2.20;;;20.40;99.90;;;;;;5010974;28;20486;-68
2023/08/31 10:10:05;;;;;;;5.67;2.20;;;20.80;99.90;;;;;;5010716;28;20458;-68
2023/08/31 10:12:33;;;;;;;4.33;2.37;;;20.80;99.90;;;;;;5010530;28;20490;-69
2023/08/31 10:15:03;;;;;;;2.40;2.03;;;20.80;99.90;;;;;;5010512;28;20469;-68
2023/08/31 10:17:30;;;;;;;5.03;2.90;;;20.70;99.90;;;;;;5010527;28;21002;-70
2023/08/31 10:19:57;;;;;;;2.77;1.77;;;20.50;99.90;;;;;;5007868;28;20453;-69
2023/08/31 10:22:24;;;;;;;4.50;2.27;;;20.50;99.90;;;;;;5010766;28;20466;-69
2023/08/31 10:25:03;;;;;;;4.40;2.13;;;20.60;99.90;;;;;;5010640;28;20446;-68
2023/08/31 10:27:36;;;;;;;4.77;2.10;;;20.40;99.90;;;;;;5010580;28;20489;-67
2023/08/31 10:30:28;;;;;;;4.13;2.20;;;20.10;99.90;;;;;;5009687;28;20446;-67
2023/08/31 10:33:20;;;;;;;2.43;2.00;;;19.70;99.90;;;;;;5006308;28;20458;-68
2023/08/31 10:35:50;;;;;;;3.40;2.00;;;19.30;99.90;;;;;;5010859;28;20443;-68
2023/08/31 10:38:17;;;;;;;4.33;2.13;;;19.00;99.90;;;;;;5010848;28;20459;-67
2023/08/31 10:41:01;;;;;;;5.93;2.40;;;18.70;99.90;;;;;;5001704;28;21000;-68
2023/08/31 10:43:27;;;;;;;3.60;2.30;;;18.50;99.90;;;;;;5010387;28;20541;-75
2023/08/31 10:45:59;;;;;;;6.43;2.67;;;18.60;99.90;;;;;;5009001;28;20512;-76
2023/08/31 10:48:26;;;;;;;5.40;2.83;;;18.90;99.90;;;;;;5011199;28;20485;-77
2023/08/31 10:50:53;;;;;;;7.57;2.20;;;19.50;99.90;;;;;;5012811;28;20470;-79
2023/08/31 10:53:20;;;;;;;5.27;2.07;;;20.00;99.90;;;;;;5014177;28;21053;-79
2023/08/31 10:55:53;;;;;;;5.60;2.47;;;20.50;99.90;;;;;;5013938;28;20450;-77
2023/08/31 10:58:20;;;;;;;3.27;2.23;;;21.00;99.90;;;;;;5012910;28;20446;-77
2023/08/31 11:00:53;;;;;;;8.07;2.27;;;21.30;99.90;;;;;;5006339;28;20519;-79
2023/08/31 11:03:21;;;;;;;6.53;2.20;;;21.30;99.90;;;;;;5012262;28;20486;-82
2023/08/31 11:05:58;;;;;;;3.60;2.10;;;21.30;99.90;;;;;;5015437;28;20465;-82
2023/08/31 11:08:25;;;;;;;7.63;2.37;;;21.60;99.90;;;;;;5012920;28;20478;-82
2023/08/31 11:10:52;;;;;;;6.00;1.93;;;21.20;99.90;;;;;;5015944;28;20542;-83
2023/08/31 11:13:20;;;;;;;6.40;2.30;;;20.80;99.90;;;;;;5016740;28;21229;-84
2023/08/31 11:15:48;;;;;;;2.30;2.03;;;20.70;99.90;;;;;;5021416;28;20477;-82
2023/08/31 11:18:17;;;;;;;4.63;2.07;;;20.80;99.90;;;;;;5022893;28;20446;-83
2023/08/31 11:20:51;;;;;;;5.40;2.17;;;20.70;99.90;;;;;;5021727;28;20470;-82
2023/08/31 11:23:21;;;;;;;3.50;1.90;;;20.80;99.90;;;;;;5019742;28;20466;-82
2023/08/31 11:25:48;;;;;;;8.73;2.30;;;21.30;99.90;;;;;;5018932;28;20530;-80
2023/08/31 11:28:15;;;;;;;2.30;1.67;;;21.50;99.90;;;;;;5020866;28;20498;-82
2023/08/31 11:30:44;;;;;;;2.73;1.80;;;21.50;99.90;;;;;;5013291;28;20469;-80
2023/08/31 11:33:12;;;;;;;6.20;2.13;;;21.50;99.90;;;;;;5013219;28;20454;-81
2023/08/31 11:35:42;;;;;;;3.33;1.90;;;21.80;99.90;;;;;;5013034;28;20462;-83
2023/08/31 11:38:10;;;;;;;2.03;1.60;;;22.30;99.90;;;;;;5014428;28;20457;-83
2023/08/31 11:40:37;;;;;;;5.53;2.00;;;22.60;99.90;;;;;;5009845;28;21003;-82
2023/08/31 11:43:06;;;;;;;8.10;1.87;;;22.80;99.90;;;;;;5008020;28;20442;-80
2023/08/31 11:45:33;;;;;;;3.17;1.70;;;22.90;99.90;;;;;;5015548;28;20508;-82
2023/08/31 11:48:00;;;;;;;3.50;1.90;;;22.40;99.90;;;;;;5014709;28;20486;-83
2023/08/31 11:50:28;;;;;;;4.20;2.20;;;22.10;99.90;;;;;;5012686;28;20477;-83
2023/08/31 11:52:55;;;;;;;3.00;2.10;;;22.10;99.90;;;;;;5011451;28;20458;-83
2023/08/31 11:55:23;;;;;;;2.40;1.77;;;22.50;99.90;;;;;;5015390;28;20493;-84
2023/08/31 11:57:50;;;;;;;2.50;1.67;;;22.80;99.90;;;;;;5018671;28;20944;-83
2023/08/31 12:00:19;;;;;;;4.00;2.03;;;23.10;99.90;;;;;;5012445;28;20498;-79
2023/08/31 12:02:48;;;;;;;2.33;2.13;;;23.40;99.90;;;;;;5011488;28;20512;-77
2023/08/31 12:05:15;;;;;;;1.70;1.40;;;23.50;99.90;;;;;;5017204;28;20465;-77
2023/08/31 12:07:42;;;;;;;3.67;2.10;;;23.20;99.90;;;;;;5015619;28;20446;-76
2023/08/31 12:10:10;;;;;;;3.30;1.67;;;22.90;99.90;;;;;;5016535;28;20546;-78
2023/08/31 12:12:38;;;;;;;1.80;1.60;;;22.50;99.90;;;;;;5015876;28;20998;-79
2023/08/31 12:15:06;;;;;;;4.40;1.90;;;22.60;99.90;;;;;;5016131;28;20461;-77
2023/08/31 12:17:37;;;;;;;2.40;1.63;;;22.80;99.90;;;;;;5014612;28;20453;-77
2023/08/31 12:20:06;;;;;;;4.13;2.00;;;23.10;99.90;;;;;;5013438;28;20806;-77
2023/08/31 12:22:33;;;;;;;3.47;2.07;;;23.40;99.90;;;;;;5013368;28;20896;-77
2023/08/31 12:24:59;;;;;;;3.70;1.97;;;23.90;99.90;;;;;;5014413;28;20454;-78
2023/08/31 12:27:27;;;;;;;5.13;1.70;;;23.90;99.90;;;;;;5015463;28;20469;-78
2023/08/31 12:29:55;;;;;;;2.10;1.90;;;23.50;99.90;;;;;;5015751;28;20489;-79
2023/08/31 12:32:22;;;;;;;4.80;1.90;;;23.20;99.90;;;;;;5014915;28;20481;-78
2023/08/31 12:34:49;;;;;;;7.63;2.57;;;23.00;99.90;;;;;;5015633;28;20458;-77
2023/08/31 12:37:16;;;;;;;3.20;2.00;;;22.90;99.90;;;;;;5012236;28;20508;-77
2023/08/31 12:39:45;;;;;;;2.17;1.80;;;23.00;99.90;;;;;;5017864;28;21133;-78
2023/08/31 12:42:12;;;;;;;2.93;1.80;;;23.20;99.90;;;;;;5016688;28;20494;-77
2023/08/31 12:44:39;;;;;;;3.70;2.30;;;23.20;99.90;;;;;;5014472;28;20565;-77
2023/08/31 12:47:07;;;;;;;4.20;2.17;;;23.20;99.90;;;;;;5014754;28;20952;-77
2023/08/31 12:49:34;;;;;;;2.80;2.13;;;23.40;99.90;;;;;;5014994;28;20494;-78
2023/08/31 12:52:00;;;;;;;3.63;2.00;;;23.20;99.90;;;;;;5015310;28;20466;-77